sensor_id;sensor_type;location;lat;lon;timestamp;P1;durP1;ratioP1;P2;durP2;ratioP2
15841;SDS011;8021;48.022;11.812;2023-06-05T00:01:29;0.13;;;0.13;;
15841;SDS011;8021;48.022;11.812;2023-06-05T00:04:00;0.30;;;0.30;;
15841;SDS011;8021;48.022;11.812;2023-06-05T00:06:30;0.20;;;0.20;;
15841;SDS011;8021;48.022;11.812;2023-06-05T00:08:58;0.25;;;0.25;;
15841;SDS011;8021;48.022;11.812;2023-06-05T00:11:25;0.20;;;0.20;;
15841;SDS011;8021;48.022;11.812;2023-06-05T00:13:53;0.30;;;0.30;;
15841;SDS011;8021;48.022;11.812;2023-06-05T00:16:20;0.20;;;0.20;;
15841;SDS011;8021;48.022;11.812;2023-06-05T00:18:48;0.20;;;0.20;;
15841;SDS011;8021;48.022;11.812;2023-06-05T00:21:16;0.20;;;0.20;;
15841;SDS011;8021;48.022;11.812;2023-06-05T00:23:47;0.20;;;0.20;;
15841;SDS011;8021;48.022;11.812;2023-06-05T00:26:15;0.20;;;0.20;;
15841;SDS011;8021;48.022;11.812;2023-06-05T00:28:42;0.25;;;0.25;;
15841;SDS011;8021;48.022;11.812;2023-06-05T00:31:11;0.30;;;0.30;;
15841;SDS011;8021;48.022;11.812;2023-06-05T00:33:39;0.30;;;0.30;;
15841;SDS011;8021;48.022;11.812;2023-06-05T00:36:06;0.20;;;0.20;;
15841;SDS011;8021;48.022;11.812;2023-06-05T00:38:34;0.20;;;0.20;;
15841;SDS011;8021;48.022;11.812;2023-06-05T00:41:03;0.20;;;0.20;;
15841;SDS011;8021;48.022;11.812;2023-06-05T00:43:30;0.20;;;0.20;;
15841;SDS011;8021;48.022;11.812;2023-06-05T00:45:59;0.30;;;0.30;;
15841;SDS011;8021;48.022;11.812;2023-06-05T00:48:29;0.20;;;0.20;;
15841;SDS011;8021;48.022;11.812;2023-06-05T00:50:57;0.20;;;0.20;;
15841;SDS011;8021;48.022;11.812;2023-06-05T00:53:24;0.20;;;0.20;;
15841;SDS011;8021;48.022;11.812;2023-06-05T00:55:52;0.20;;;0.20;;
15841;SDS011;8021;48.022;11.812;2023-06-05T00:58:22;0.20;;;0.20;;
15841;SDS011;8021;48.022;11.812;2023-06-05T01:00:50;0.20;;;0.20;;
15841;SDS011;8021;48.022;11.812;2023-06-05T01:03:17;0.30;;;0.30;;
15841;SDS011;8021;48.022;11.812;2023-06-05T01:05:46;0.20;;;0.20;;
15841;SDS011;8021;48.022;11.812;2023-06-05T01:08:15;0.20;;;0.20;;
15841;SDS011;8021;48.022;11.812;2023-06-05T01:10:47;0.20;;;0.20;;
15841;SDS011;8021;48.022;11.812;2023-06-05T01:13:15;0.20;;;0.20;;
15841;SDS011;8021;48.022;11.812;2023-06-05T01:15:46;0.30;;;0.30;;
15841;SDS011;8021;48.022;11.812;2023-06-05T01:18:15;0.20;;;0.15;;
15841;SDS011;8021;48.022;11.812;2023-06-05T01:20:44;0.30;;;0.30;;
15841;SDS011;8021;48.022;11.812;2023-06-05T01:23:13;0.20;;;0.20;;
15841;SDS011;8021;48.022;11.812;2023-06-05T01:25:41;0.30;;;0.20;;
15841;SDS011;8021;48.022;11.812;2023-06-05T01:28:10;0.28;;;0.28;;
15841;SDS011;8021;48.022;11.812;2023-06-05T01:30:42;0.20;;;0.20;;
15841;SDS011;8021;48.022;11.812;2023-06-05T01:33:14;0.20;;;0.20;;
15841;SDS011;8021;48.022;11.812;2023-06-05T01:35:43;0.20;;;0.10;;
15841;SDS011;8021;48.022;11.812;2023-06-05T01:38:19;0.30;;;0.30;;
15841;SDS011;8021;48.022;11.812;2023-06-05T01:40:47;0.22;;;0.22;;
15841;SDS011;8021;48.022;11.812;2023-06-05T01:43:17;0.20;;;0.20;;
15841;SDS011;8021;48.022;11.812;2023-06-05T01:45:46;0.20;;;0.20;;
15841;SDS011;8021;48.022;11.812;2023-06-05T01:48:14;0.20;;;0.20;;
15841;SDS011;8021;48.022;11.812;2023-06-05T01:50:42;0.20;;;0.20;;
15841;SDS011;8021;48.022;11.812;2023-06-05T01:53:11;0.20;;;0.20;;
15841;SDS011;8021;48.022;11.812;2023-06-05T01:55:40;0.20;;;0.20;;
15841;SDS011;8021;48.022;11.812;2023-06-05T01:58:08;0.20;;;0.20;;
15841;SDS011;8021;48.022;11.812;2023-06-05T02:00:36;0.20;;;0.20;;
15841;SDS011;8021;48.022;11.812;2023-06-05T02:03:03;0.22;;;0.22;;
15841;SDS011;8021;48.022;11.812;2023-06-05T02:05:31;0.20;;;0.20;;
15841;SDS011;8021;48.022;11.812;2023-06-05T02:07:59;0.20;;;0.20;;
15841;SDS011;8021;48.022;11.812;2023-06-05T02:10:32;0.30;;;0.30;;
15841;SDS011;8021;48.022;11.812;2023-06-05T02:13:02;0.20;;;0.20;;
15841;SDS011;8021;48.022;11.812;2023-06-05T02:15:30;0.30;;;0.30;;
15841;SDS011;8021;48.022;11.812;2023-06-05T02:18:00;0.30;;;0.30;;
15841;SDS011;8021;48.022;11.812;2023-06-05T02:20:30;0.20;;;0.20;;
15841;SDS011;8021;48.022;11.812;2023-06-05T02:22:58;0.20;;;0.20;;
15841;SDS011;8021;48.022;11.812;2023-06-05T02:25:28;0.30;;;0.25;;
15841;SDS011;8021;48.022;11.812;2023-06-05T02:27:55;0.20;;;0.20;;
15841;SDS011;8021;48.022;11.812;2023-06-05T02:30:24;0.20;;;0.20;;
15841;SDS011;8021;48.022;11.812;2023-06-05T02:32:52;0.20;;;0.20;;
15841;SDS011;8021;48.022;11.812;2023-06-05T02:35:23;0.28;;;0.25;;
15841;SDS011;8021;48.022;11.812;2023-06-05T02:37:51;0.28;;;0.28;;
15841;SDS011;8021;48.022;11.812;2023-06-05T02:40:19;0.20;;;0.20;;
15841;SDS011;8021;48.022;11.812;2023-06-05T02:42:46;0.30;;;0.20;;
15841;SDS011;8021;48.022;11.812;2023-06-05T02:45:14;0.30;;;0.30;;
15841;SDS011;8021;48.022;11.812;2023-06-05T02:47:43;0.22;;;0.22;;
15841;SDS011;8021;48.022;11.812;2023-06-05T02:50:11;0.30;;;0.30;;
15841;SDS011;8021;48.022;11.812;2023-06-05T02:52:44;0.30;;;0.20;;
15841;SDS011;8021;48.022;11.812;2023-06-05T02:55:22;0.28;;;0.28;;
15841;SDS011;8021;48.022;11.812;2023-06-05T02:57:52;0.30;;;0.30;;
15841;SDS011;8021;48.022;11.812;2023-06-05T03:00:32;0.30;;;0.30;;
15841;SDS011;8021;48.022;11.812;2023-06-05T03:03:02;0.22;;;0.22;;
15841;SDS011;8021;48.022;11.812;2023-06-05T03:05:31;0.20;;;0.20;;
15841;SDS011;8021;48.022;11.812;2023-06-05T03:08:05;0.20;;;0.20;;
15841;SDS011;8021;48.022;11.812;2023-06-05T03:10:33;0.25;;;0.25;;
15841;SDS011;8021;48.022;11.812;2023-06-05T03:13:02;0.20;;;0.20;;
15841;SDS011;8021;48.022;11.812;2023-06-05T03:15:32;0.22;;;0.22;;
15841;SDS011;8021;48.022;11.812;2023-06-05T03:18:02;0.30;;;0.28;;
15841;SDS011;8021;48.022;11.812;2023-06-05T03:20:30;0.20;;;0.20;;
15841;SDS011;8021;48.022;11.812;2023-06-05T03:22:59;0.30;;;0.20;;
15841;SDS011;8021;48.022;11.812;2023-06-05T03:25:27;0.30;;;0.20;;
15841;SDS011;8021;48.022;11.812;2023-06-05T03:27:56;0.30;;;0.30;;
15841;SDS011;8021;48.022;11.812;2023-06-05T03:30:26;0.20;;;0.20;;
15841;SDS011;8021;48.022;11.812;2023-06-05T03:32:57;0.17;;;0.17;;
15841;SDS011;8021;48.022;11.812;2023-06-05T03:35:26;0.20;;;0.20;;
15841;SDS011;8021;48.022;11.812;2023-06-05T03:37:59;0.20;;;0.20;;
15841;SDS011;8021;48.022;11.812;2023-06-05T03:40:26;0.22;;;0.22;;
15841;SDS011;8021;48.022;11.812;2023-06-05T03:42:54;0.20;;;0.20;;
15841;SDS011;8021;48.022;11.812;2023-06-05T03:45:22;0.20;;;0.20;;
15841;SDS011;8021;48.022;11.812;2023-06-05T03:47:52;0.20;;;0.20;;
15841;SDS011;8021;48.022;11.812;2023-06-05T03:50:21;0.20;;;0.20;;
15841;SDS011;8021;48.022;11.812;2023-06-05T03:52:51;0.20;;;0.20;;
15841;SDS011;8021;48.022;11.812;2023-06-05T03:55:20;0.20;;;0.20;;
15841;SDS011;8021;48.022;11.812;2023-06-05T03:57:47;0.22;;;0.22;;
15841;SDS011;8021;48.022;11.812;2023-06-05T04:00:15;0.30;;;0.30;;
15841;SDS011;8021;48.022;11.812;2023-06-05T04:02:54;0.20;;;0.20;;
15841;SDS011;8021;48.022;11.812;2023-06-05T04:05:22;0.20;;;0.20;;
15841;SDS011;8021;48.022;11.812;2023-06-05T04:07:52;0.30;;;0.30;;
15841;SDS011;8021;48.022;11.812;2023-06-05T04:10:19;0.20;;;0.20;;
15841;SDS011;8021;48.022;11.812;2023-06-05T04:12:47;0.20;;;0.20;;
15841;SDS011;8021;48.022;11.812;2023-06-05T04:15:15;0.22;;;0.20;;
15841;SDS011;8021;48.022;11.812;2023-06-05T04:17:42;0.20;;;0.20;;
15841;SDS011;8021;48.022;11.812;2023-06-05T04:20:10;0.20;;;0.20;;
15841;SDS011;8021;48.022;11.812;2023-06-05T04:22:41;0.20;;;0.20;;
15841;SDS011;8021;48.022;11.812;2023-06-05T04:25:10;0.20;;;0.20;;
15841;SDS011;8021;48.022;11.812;2023-06-05T04:27:39;0.25;;;0.25;;
15841;SDS011;8021;48.022;11.812;2023-06-05T04:30:07;0.17;;;0.17;;
15841;SDS011;8021;48.022;11.812;2023-06-05T04:32:35;0.30;;;0.30;;
15841;SDS011;8021;48.022;11.812;2023-06-05T04:35:05;0.20;;;0.20;;
15841;SDS011;8021;48.022;11.812;2023-06-05T04:37:32;0.20;;;0.20;;
15841;SDS011;8021;48.022;11.812;2023-06-05T04:40:01;0.20;;;0.20;;
15841;SDS011;8021;48.022;11.812;2023-06-05T04:42:34;0.30;;;0.30;;
15841;SDS011;8021;48.022;11.812;2023-06-05T04:45:04;0.20;;;0.20;;
15841;SDS011;8021;48.022;11.812;2023-06-05T04:47:35;0.20;;;0.20;;
15841;SDS011;8021;48.022;11.812;2023-06-05T04:50:05;0.20;;;0.20;;
15841;SDS011;8021;48.022;11.812;2023-06-05T04:52:35;0.20;;;0.20;;
15841;SDS011;8021;48.022;11.812;2023-06-05T04:55:07;0.25;;;0.25;;
15841;SDS011;8021;48.022;11.812;2023-06-05T04:57:36;0.20;;;0.20;;
15841;SDS011;8021;48.022;11.812;2023-06-05T05:00:05;0.20;;;0.20;;
15841;SDS011;8021;48.022;11.812;2023-06-05T05:02:35;0.25;;;0.25;;
15841;SDS011;8021;48.022;11.812;2023-06-05T05:05:04;0.20;;;0.20;;
15841;SDS011;8021;48.022;11.812;2023-06-05T05:07:32;0.20;;;0.20;;
15841;SDS011;8021;48.022;11.812;2023-06-05T05:10:01;0.30;;;0.20;;
15841;SDS011;8021;48.022;11.812;2023-06-05T05:12:30;0.20;;;0.20;;
15841;SDS011;8021;48.022;11.812;2023-06-05T05:14:59;0.20;;;0.20;;
15841;SDS011;8021;48.022;11.812;2023-06-05T05:17:27;0.20;;;0.20;;
15841;SDS011;8021;48.022;11.812;2023-06-05T05:19:56;0.20;;;0.20;;
15841;SDS011;8021;48.022;11.812;2023-06-05T05:22:24;0.20;;;0.13;;
15841;SDS011;8021;48.022;11.812;2023-06-05T05:24:51;0.20;;;0.10;;
15841;SDS011;8021;48.022;11.812;2023-06-05T05:27:19;0.20;;;0.20;;
15841;SDS011;8021;48.022;11.812;2023-06-05T05:29:47;0.20;;;0.20;;
15841;SDS011;8021;48.022;11.812;2023-06-05T05:32:16;0.30;;;0.30;;
15841;SDS011;8021;48.022;11.812;2023-06-05T05:34:44;0.13;;;0.13;;
15841;SDS011;8021;48.022;11.812;2023-06-05T05:37:12;0.20;;;0.20;;
15841;SDS011;8021;48.022;11.812;2023-06-05T05:39:40;0.20;;;0.20;;
15841;SDS011;8021;48.022;11.812;2023-06-05T05:42:08;0.20;;;0.20;;
15841;SDS011;8021;48.022;11.812;2023-06-05T05:44:35;0.20;;;0.20;;
15841;SDS011;8021;48.022;11.812;2023-06-05T05:47:03;0.20;;;0.20;;
15841;SDS011;8021;48.022;11.812;2023-06-05T05:49:32;0.10;;;0.10;;
15841;SDS011;8021;48.022;11.812;2023-06-05T05:51:59;0.20;;;0.20;;
15841;SDS011;8021;48.022;11.812;2023-06-05T05:54:27;0.10;;;0.10;;
15841;SDS011;8021;48.022;11.812;2023-06-05T05:56:54;0.13;;;0.13;;
15841;SDS011;8021;48.022;11.812;2023-06-05T05:59:22;0.17;;;0.17;;
15841;SDS011;8021;48.022;11.812;2023-06-05T06:01:49;0.10;;;0.10;;
15841;SDS011;8021;48.022;11.812;2023-06-05T06:04:17;0.20;;;0.20;;
15841;SDS011;8021;48.022;11.812;2023-06-05T06:06:47;0.10;;;0.10;;
15841;SDS011;8021;48.022;11.812;2023-06-05T06:09:18;0.13;;;0.13;;
15841;SDS011;8021;48.022;11.812;2023-06-05T06:11:46;0.10;;;0.10;;
15841;SDS011;8021;48.022;11.812;2023-06-05T06:14:14;0.10;;;0.10;;
15841;SDS011;8021;48.022;11.812;2023-06-05T06:16:42;0.17;;;0.17;;
15841;SDS011;8021;48.022;11.812;2023-06-05T06:19:09;0.20;;;0.20;;
15841;SDS011;8021;48.022;11.812;2023-06-05T06:21:40;0.20;;;0.20;;
15841;SDS011;8021;48.022;11.812;2023-06-05T06:24:10;0.10;;;0.10;;
15841;SDS011;8021;48.022;11.812;2023-06-05T06:26:37;0.20;;;0.20;;
15841;SDS011;8021;48.022;11.812;2023-06-05T06:29:05;0.15;;;0.15;;
15841;SDS011;8021;48.022;11.812;2023-06-05T06:31:32;0.17;;;0.17;;
15841;SDS011;8021;48.022;11.812;2023-06-05T06:34:00;0.20;;;0.20;;
15841;SDS011;8021;48.022;11.812;2023-06-05T06:36:28;0.20;;;0.10;;
15841;SDS011;8021;48.022;11.812;2023-06-05T06:38:56;0.20;;;0.20;;
15841;SDS011;8021;48.022;11.812;2023-06-05T06:41:25;0.20;;;0.20;;
15841;SDS011;8021;48.022;11.812;2023-06-05T06:43:52;0.20;;;0.20;;
15841;SDS011;8021;48.022;11.812;2023-06-05T06:46:20;0.10;;;0.10;;
15841;SDS011;8021;48.022;11.812;2023-06-05T06:48:47;0.10;;;0.10;;
15841;SDS011;8021;48.022;11.812;2023-06-05T06:51:15;0.10;;;0.10;;
15841;SDS011;8021;48.022;11.812;2023-06-05T06:53:43;0.10;;;0.10;;
15841;SDS011;8021;48.022;11.812;2023-06-05T06:56:10;0.20;;;0.10;;
15841;SDS011;8021;48.022;11.812;2023-06-05T06:58:39;0.15;;;0.15;;
15841;SDS011;8021;48.022;11.812;2023-06-05T07:01:07;0.10;;;0.10;;
15841;SDS011;8021;48.022;11.812;2023-06-05T07:03:35;0.20;;;0.20;;
15841;SDS011;8021;48.022;11.812;2023-06-05T07:06:03;0.10;;;0.10;;
15841;SDS011;8021;48.022;11.812;2023-06-05T07:08:30;0.10;;;0.10;;
15841;SDS011;8021;48.022;11.812;2023-06-05T07:10:58;0.20;;;0.20;;
15841;SDS011;8021;48.022;11.812;2023-06-05T07:13:26;0.20;;;0.20;;
15841;SDS011;8021;48.022;11.812;2023-06-05T07:15:55;0.20;;;0.20;;
15841;SDS011;8021;48.022;11.812;2023-06-05T07:18:22;0.10;;;0.10;;
15841;SDS011;8021;48.022;11.812;2023-06-05T07:20:50;0.10;;;0.10;;
15841;SDS011;8021;48.022;11.812;2023-06-05T07:23:17;0.10;;;0.10;;
15841;SDS011;8021;48.022;11.812;2023-06-05T07:25:47;0.10;;;0.10;;
15841;SDS011;8021;48.022;11.812;2023-06-05T07:28:14;0.10;;;0.10;;
15841;SDS011;8021;48.022;11.812;2023-06-05T07:30:43;0.10;;;0.10;;
15841;SDS011;8021;48.022;11.812;2023-06-05T07:33:12;0.10;;;0.10;;
15841;SDS011;8021;48.022;11.812;2023-06-05T07:35:55;0.10;;;0.10;;
15841;SDS011;8021;48.022;11.812;2023-06-05T07:38:23;0.10;;;0.10;;
15841;SDS011;8021;48.022;11.812;2023-06-05T07:40:52;0.10;;;0.10;;
15841;SDS011;8021;48.022;11.812;2023-06-05T07:43:20;0.10;;;0.10;;
15841;SDS011;8021;48.022;11.812;2023-06-05T07:45:48;0.10;;;0.10;;
15841;SDS011;8021;48.022;11.812;2023-06-05T07:48:17;0.10;;;0.10;;
15841;SDS011;8021;48.022;11.812;2023-06-05T07:50:44;0.08;;;0.00;;
15841;SDS011;8021;48.022;11.812;2023-06-05T07:53:12;0.00;;;0.00;;
15841;SDS011;8021;48.022;11.812;2023-06-05T07:55:40;0.03;;;0.00;;
15841;SDS011;8021;48.022;11.812;2023-06-05T07:58:07;0.10;;;0.10;;
15841;SDS011;8021;48.022;11.812;2023-06-05T08:00:35;0.10;;;0.00;;
15841;SDS011;8021;48.022;11.812;2023-06-05T08:03:02;0.00;;;0.00;;
15841;SDS011;8021;48.022;11.812;2023-06-05T08:05:34;0.00;;;0.00;;
15841;SDS011;8021;48.022;11.812;2023-06-05T08:08:02;0.00;;;0.00;;
15841;SDS011;8021;48.022;11.812;2023-06-05T08:10:29;0.00;;;0.00;;
15841;SDS011;8021;48.022;11.812;2023-06-05T08:12:57;0.00;;;0.00;;
15841;SDS011;8021;48.022;11.812;2023-06-05T08:15:24;0.10;;;0.00;;
15841;SDS011;8021;48.022;11.812;2023-06-05T08:17:52;0.00;;;0.00;;
15841;SDS011;8021;48.022;11.812;2023-06-05T08:20:19;0.00;;;0.00;;
15841;SDS011;8021;48.022;11.812;2023-06-05T08:22:48;0.00;;;0.00;;
15841;SDS011;8021;48.022;11.812;2023-06-05T08:25:16;0.10;;;0.03;;
15841;SDS011;8021;48.022;11.812;2023-06-05T08:27:43;0.00;;;0.00;;
15841;SDS011;8021;48.022;11.812;2023-06-05T08:30:11;0.00;;;0.00;;
15841;SDS011;8021;48.022;11.812;2023-06-05T08:32:39;0.00;;;0.00;;
15841;SDS011;8021;48.022;11.812;2023-06-05T08:35:07;0.00;;;0.00;;
15841;SDS011;8021;48.022;11.812;2023-06-05T08:37:35;0.00;;;0.00;;
15841;SDS011;8021;48.022;11.812;2023-06-05T08:40:04;0.00;;;0.00;;
15841;SDS011;8021;48.022;11.812;2023-06-05T08:42:36;0.00;;;0.00;;
15841;SDS011;8021;48.022;11.812;2023-06-05T08:45:05;0.00;;;0.00;;
15841;SDS011;8021;48.022;11.812;2023-06-05T08:47:35;0.00;;;0.00;;
15841;SDS011;8021;48.022;11.812;2023-06-05T08:50:04;0.00;;;0.00;;
15841;SDS011;8021;48.022;11.812;2023-06-05T08:52:33;0.00;;;0.00;;
15841;SDS011;8021;48.022;11.812;2023-06-05T08:55:04;0.08;;;0.08;;
15841;SDS011;8021;48.022;11.812;2023-06-05T08:57:32;0.10;;;0.10;;
15841;SDS011;8021;48.022;11.812;2023-06-05T08:59:59;0.10;;;0.00;;
15841;SDS011;8021;48.022;11.812;2023-06-05T09:02:31;0.00;;;0.00;;
15841;SDS011;8021;48.022;11.812;2023-06-05T09:04:58;0.00;;;0.00;;
15841;SDS011;8021;48.022;11.812;2023-06-05T09:07:27;0.03;;;0.00;;
15841;SDS011;8021;48.022;11.812;2023-06-05T09:09:57;0.00;;;0.00;;
15841;SDS011;8021;48.022;11.812;2023-06-05T09:12:26;0.10;;;0.00;;
15841;SDS011;8021;48.022;11.812;2023-06-05T09:14:53;0.10;;;0.08;;
15841;SDS011;8021;48.022;11.812;2023-06-05T09:17:23;0.00;;;0.00;;
15841;SDS011;8021;48.022;11.812;2023-06-05T09:19:51;0.08;;;0.08;;
15841;SDS011;8021;48.022;11.812;2023-06-05T09:22:31;0.10;;;0.10;;
15841;SDS011;8021;48.022;11.812;2023-06-05T09:24:59;0.10;;;0.10;;
15841;SDS011;8021;48.022;11.812;2023-06-05T09:27:29;0.10;;;0.10;;
15841;SDS011;8021;48.022;11.812;2023-06-05T09:30:01;0.10;;;0.10;;
15841;SDS011;8021;48.022;11.812;2023-06-05T09:32:29;0.10;;;0.10;;
15841;SDS011;8021;48.022;11.812;2023-06-05T09:34:57;0.10;;;0.10;;
15841;SDS011;8021;48.022;11.812;2023-06-05T09:37:33;0.10;;;0.10;;
15841;SDS011;8021;48.022;11.812;2023-06-05T09:40:02;0.10;;;0.10;;
15841;SDS011;8021;48.022;11.812;2023-06-05T09:42:32;0.10;;;0.10;;
15841;SDS011;8021;48.022;11.812;2023-06-05T09:45:01;0.10;;;0.10;;
15841;SDS011;8021;48.022;11.812;2023-06-05T09:47:28;0.10;;;0.10;;
15841;SDS011;8021;48.022;11.812;2023-06-05T09:50:20;0.10;;;0.10;;
15841;SDS011;8021;48.022;11.812;2023-06-05T09:52:48;0.10;;;0.10;;
15841;SDS011;8021;48.022;11.812;2023-06-05T09:55:16;0.10;;;0.10;;
15841;SDS011;8021;48.022;11.812;2023-06-05T09:57:45;0.13;;;0.13;;
15841;SDS011;8021;48.022;11.812;2023-06-05T10:00:14;0.10;;;0.10;;
15841;SDS011;8021;48.022;11.812;2023-06-05T10:02:44;0.10;;;0.10;;
15841;SDS011;8021;48.022;11.812;2023-06-05T10:05:12;0.10;;;0.10;;
15841;SDS011;8021;48.022;11.812;2023-06-05T10:07:40;0.10;;;0.10;;
15841;SDS011;8021;48.022;11.812;2023-06-05T10:10:08;0.10;;;0.10;;
15841;SDS011;8021;48.022;11.812;2023-06-05T10:12:36;0.10;;;0.10;;
15841;SDS011;8021;48.022;11.812;2023-06-05T10:15:07;0.10;;;0.10;;
15841;SDS011;8021;48.022;11.812;2023-06-05T10:17:36;0.10;;;0.10;;
15841;SDS011;8021;48.022;11.812;2023-06-05T10:20:06;0.10;;;0.10;;
15841;SDS011;8021;48.022;11.812;2023-06-05T10:22:34;0.10;;;0.10;;
15841;SDS011;8021;48.022;11.812;2023-06-05T10:25:03;0.10;;;0.10;;
15841;SDS011;8021;48.022;11.812;2023-06-05T10:27:36;0.10;;;0.10;;
15841;SDS011;8021;48.022;11.812;2023-06-05T10:30:28;0.10;;;0.10;;
15841;SDS011;8021;48.022;11.812;2023-06-05T10:33:02;0.10;;;0.10;;
15841;SDS011;8021;48.022;11.812;2023-06-05T10:35:34;0.10;;;0.10;;
15841;SDS011;8021;48.022;11.812;2023-06-05T10:38:08;0.10;;;0.10;;
15841;SDS011;8021;48.022;11.812;2023-06-05T10:40:42;0.10;;;0.10;;
15841;SDS011;8021;48.022;11.812;2023-06-05T10:43:23;0.10;;;0.10;;
15841;SDS011;8021;48.022;11.812;2023-06-05T10:45:52;0.10;;;0.10;;
15841;SDS011;8021;48.022;11.812;2023-06-05T10:51:31;0.10;;;0.10;;
15841;SDS011;8021;48.022;11.812;2023-06-05T10:53:59;0.10;;;0.10;;
15841;SDS011;8021;48.022;11.812;2023-06-05T10:59:14;0.10;;;0.10;;
15841;SDS011;8021;48.022;11.812;2023-06-05T11:01:43;0.10;;;0.10;;
15841;SDS011;8021;48.022;11.812;2023-06-05T11:04:11;0.10;;;0.10;;
15841;SDS011;8021;48.022;11.812;2023-06-05T11:06:39;0.17;;;0.17;;
15841;SDS011;8021;48.022;11.812;2023-06-05T11:09:07;0.17;;;0.15;;
15841;SDS011;8021;48.022;11.812;2023-06-05T11:11:54;0.10;;;0.10;;
15841;SDS011;8021;48.022;11.812;2023-06-05T11:14:22;0.10;;;0.10;;
15841;SDS011;8021;48.022;11.812;2023-06-05T11:16:50;0.10;;;0.10;;
15841;SDS011;8021;48.022;11.812;2023-06-05T11:19:35;0.10;;;0.10;;
15841;SDS011;8021;48.022;11.812;2023-06-05T11:22:06;0.20;;;0.20;;
15841;SDS011;8021;48.022;11.812;2023-06-05T11:24:35;0.10;;;0.10;;
15841;SDS011;8021;48.022;11.812;2023-06-05T11:27:03;0.10;;;0.10;;
15841;SDS011;8021;48.022;11.812;2023-06-05T11:29:31;0.10;;;0.10;;
15841;SDS011;8021;48.022;11.812;2023-06-05T11:32:00;0.10;;;0.10;;
15841;SDS011;8021;48.022;11.812;2023-06-05T11:34:37;0.10;;;0.10;;
15841;SDS011;8021;48.022;11.812;2023-06-05T11:37:14;0.10;;;0.10;;
15841;SDS011;8021;48.022;11.812;2023-06-05T11:39:42;0.10;;;0.10;;
15841;SDS011;8021;48.022;11.812;2023-06-05T11:42:10;0.10;;;0.10;;
15841;SDS011;8021;48.022;11.812;2023-06-05T11:44:37;0.13;;;0.13;;
15841;SDS011;8021;48.022;11.812;2023-06-05T11:47:07;0.10;;;0.10;;
15841;SDS011;8021;48.022;11.812;2023-06-05T11:49:34;0.10;;;0.10;;
15841;SDS011;8021;48.022;11.812;2023-06-05T11:52:02;0.10;;;0.10;;
15841;SDS011;8021;48.022;11.812;2023-06-05T11:54:30;0.10;;;0.10;;
15841;SDS011;8021;48.022;11.812;2023-06-05T11:57:02;0.20;;;0.20;;
15841;SDS011;8021;48.022;11.812;2023-06-05T11:59:35;0.10;;;0.10;;
15841;SDS011;8021;48.022;11.812;2023-06-05T12:02:03;0.10;;;0.10;;
15841;SDS011;8021;48.022;11.812;2023-06-05T12:04:32;0.10;;;0.10;;
15841;SDS011;8021;48.022;11.812;2023-06-05T12:07:00;0.10;;;0.10;;
15841;SDS011;8021;48.022;11.812;2023-06-05T12:09:29;0.10;;;0.10;;
15841;SDS011;8021;48.022;11.812;2023-06-05T12:12:06;0.10;;;0.10;;
15841;SDS011;8021;48.022;11.812;2023-06-05T12:14:34;0.10;;;0.10;;
15841;SDS011;8021;48.022;11.812;2023-06-05T12:17:08;0.10;;;0.10;;
15841;SDS011;8021;48.022;11.812;2023-06-05T12:19:37;0.10;;;0.10;;
15841;SDS011;8021;48.022;11.812;2023-06-05T12:22:06;0.10;;;0.10;;
15841;SDS011;8021;48.022;11.812;2023-06-05T12:24:35;0.10;;;0.10;;
15841;SDS011;8021;48.022;11.812;2023-06-05T12:27:03;0.10;;;0.10;;
15841;SDS011;8021;48.022;11.812;2023-06-05T12:29:33;0.10;;;0.10;;
15841;SDS011;8021;48.022;11.812;2023-06-05T12:32:02;0.10;;;0.10;;
15841;SDS011;8021;48.022;11.812;2023-06-05T12:34:41;0.10;;;0.10;;
15841;SDS011;8021;48.022;11.812;2023-06-05T12:37:21;0.10;;;0.10;;
15841;SDS011;8021;48.022;11.812;2023-06-05T12:39:48;0.10;;;0.10;;
15841;SDS011;8021;48.022;11.812;2023-06-05T12:42:16;0.10;;;0.10;;
15841;SDS011;8021;48.022;11.812;2023-06-05T12:44:43;0.10;;;0.10;;
15841;SDS011;8021;48.022;11.812;2023-06-05T12:47:11;0.10;;;0.10;;
15841;SDS011;8021;48.022;11.812;2023-06-05T12:49:40;0.10;;;0.10;;
15841;SDS011;8021;48.022;11.812;2023-06-05T12:52:08;0.10;;;0.10;;
15841;SDS011;8021;48.022;11.812;2023-06-05T12:54:35;0.10;;;0.10;;
15841;SDS011;8021;48.022;11.812;2023-06-05T12:57:04;0.10;;;0.10;;
15841;SDS011;8021;48.022;11.812;2023-06-05T12:59:32;0.10;;;0.10;;
15841;SDS011;8021;48.022;11.812;2023-06-05T13:01:59;0.10;;;0.10;;
15841;SDS011;8021;48.022;11.812;2023-06-05T13:04:27;0.10;;;0.10;;
15841;SDS011;8021;48.022;11.812;2023-06-05T13:06:56;0.10;;;0.10;;
15841;SDS011;8021;48.022;11.812;2023-06-05T13:09:26;0.10;;;0.10;;
15841;SDS011;8021;48.022;11.812;2023-06-05T13:11:53;0.10;;;0.10;;
15841;SDS011;8021;48.022;11.812;2023-06-05T13:14:23;0.10;;;0.10;;
15841;SDS011;8021;48.022;11.812;2023-06-05T13:16:51;0.10;;;0.10;;
15841;SDS011;8021;48.022;11.812;2023-06-05T13:19:18;0.10;;;0.10;;
15841;SDS011;8021;48.022;11.812;2023-06-05T13:21:47;0.10;;;0.10;;
15841;SDS011;8021;48.022;11.812;2023-06-05T13:24:16;0.10;;;0.10;;
15841;SDS011;8021;48.022;11.812;2023-06-05T13:26:43;0.10;;;0.10;;
15841;SDS011;8021;48.022;11.812;2023-06-05T13:29:13;0.10;;;0.10;;
15841;SDS011;8021;48.022;11.812;2023-06-05T13:31:41;0.10;;;0.10;;
15841;SDS011;8021;48.022;11.812;2023-06-05T13:34:08;0.10;;;0.10;;
15841;SDS011;8021;48.022;11.812;2023-06-05T13:36:38;0.10;;;0.10;;
15841;SDS011;8021;48.022;11.812;2023-06-05T13:39:05;0.10;;;0.10;;
15841;SDS011;8021;48.022;11.812;2023-06-05T13:41:34;0.10;;;0.10;;
15841;SDS011;8021;48.022;11.812;2023-06-05T13:44:02;0.10;;;0.10;;
15841;SDS011;8021;48.022;11.812;2023-06-05T13:46:29;0.10;;;0.10;;
15841;SDS011;8021;48.022;11.812;2023-06-05T13:48:57;0.10;;;0.10;;
15841;SDS011;8021;48.022;11.812;2023-06-05T13:51:26;0.10;;;0.10;;
15841;SDS011;8021;48.022;11.812;2023-06-05T13:53:54;0.10;;;0.10;;
15841;SDS011;8021;48.022;11.812;2023-06-05T13:56:23;0.10;;;0.10;;
15841;SDS011;8021;48.022;11.812;2023-06-05T13:58:52;0.10;;;0.10;;
15841;SDS011;8021;48.022;11.812;2023-06-05T14:01:20;0.10;;;0.10;;
15841;SDS011;8021;48.022;11.812;2023-06-05T14:03:48;0.10;;;0.10;;
15841;SDS011;8021;48.022;11.812;2023-06-05T14:06:16;0.10;;;0.10;;
15841;SDS011;8021;48.022;11.812;2023-06-05T14:08:43;0.10;;;0.10;;
15841;SDS011;8021;48.022;11.812;2023-06-05T14:11:11;0.10;;;0.10;;
15841;SDS011;8021;48.022;11.812;2023-06-05T14:13:39;0.10;;;0.10;;
15841;SDS011;8021;48.022;11.812;2023-06-05T14:16:09;0.10;;;0.10;;
15841;SDS011;8021;48.022;11.812;2023-06-05T14:18:38;0.10;;;0.10;;
15841;SDS011;8021;48.022;11.812;2023-06-05T14:21:06;0.10;;;0.10;;
15841;SDS011;8021;48.022;11.812;2023-06-05T14:23:33;0.10;;;0.10;;
15841;SDS011;8021;48.022;11.812;2023-06-05T14:26:01;0.10;;;0.10;;
15841;SDS011;8021;48.022;11.812;2023-06-05T14:28:28;0.10;;;0.10;;
15841;SDS011;8021;48.022;11.812;2023-06-05T14:30:56;0.20;;;0.20;;
15841;SDS011;8021;48.022;11.812;2023-06-05T14:33:25;0.10;;;0.10;;
15841;SDS011;8021;48.022;11.812;2023-06-05T14:35:53;0.20;;;0.20;;
15841;SDS011;8021;48.022;11.812;2023-06-05T14:38:20;0.10;;;0.10;;
15841;SDS011;8021;48.022;11.812;2023-06-05T14:40:48;0.20;;;0.20;;
15841;SDS011;8021;48.022;11.812;2023-06-05T14:43:17;0.10;;;0.10;;
15841;SDS011;8021;48.022;11.812;2023-06-05T14:45:45;0.10;;;0.10;;
15841;SDS011;8021;48.022;11.812;2023-06-05T14:48:12;0.13;;;0.13;;
15841;SDS011;8021;48.022;11.812;2023-06-05T14:50:41;0.13;;;0.13;;
15841;SDS011;8021;48.022;11.812;2023-06-05T14:53:09;0.10;;;0.10;;
15841;SDS011;8021;48.022;11.812;2023-06-05T14:55:37;0.20;;;0.20;;
15841;SDS011;8021;48.022;11.812;2023-06-05T14:58:04;0.10;;;0.10;;
15841;SDS011;8021;48.022;11.812;2023-06-05T15:00:32;0.10;;;0.10;;
15841;SDS011;8021;48.022;11.812;2023-06-05T15:02:59;0.13;;;0.13;;
15841;SDS011;8021;48.022;11.812;2023-06-05T15:05:27;0.10;;;0.10;;